Oughtibridge, United Kingdom
Current Conditions -  °F | °C
As of 1:50 PM on Monday 22 Dec 2014 (Local Time) from EGCN Reporting Station
Overcast Overcast  
Wind Chill: 59°   Ceiling: 2900
Heat Index: 59°   Visibility: 6mi
Dew Point: 50°   Wind: 21mph
Humidity: 72%   Direction: 230°SW
Pressure: 29.8"   Gusts: NA
Location:  53.44°N, 1.54°W
Report Text: EGCN 221350Z 23018KT 9999 BKN029 OVC035 15/10 Q1009
Loading
Personal Weather Stations






























Interactive Weather Map New forecast layout! Learn more

10-Day Weather Forecast

Advertisements
Track Severe Weather on mobile